createdAt,value
2022-10-21T00:00:57.993Z,90.07
2022-10-21T00:03:29.566Z,86.67
2022-10-21T00:05:57.610Z,85.80
2022-10-21T00:08:27.051Z,84.80
2022-10-21T00:10:59.038Z,86.63
2022-10-21T00:13:29.061Z,89.83
2022-10-21T00:16:01.572Z,89.47
2022-10-21T00:18:30.240Z,91.77
2022-10-21T00:20:58.528Z,91.20
2022-10-21T00:23:27.477Z,93.87
2022-10-21T00:25:59.158Z,88.93
2022-10-21T00:28:27.769Z,88.80
2022-10-21T00:30:57.985Z,89.53
2022-10-21T00:33:27.769Z,87.43
2022-10-21T00:35:58.200Z,85.67
2022-10-21T00:38:26.433Z,90.50
2022-10-21T00:40:54.458Z,89.40
2022-10-21T00:43:24.176Z,89.57
2022-10-21T00:45:55.231Z,88.73
2022-10-21T00:48:30.143Z,88.33
2022-10-21T00:51:01.928Z,92.07
2022-10-21T00:53:31.177Z,90.13
2022-10-21T00:56:03.128Z,91.07
2022-10-21T00:58:35.617Z,89.80
2022-10-21T01:01:06.080Z,91.53
2022-10-21T01:03:35.939Z,94.33
2022-10-21T01:06:08.025Z,92.97
2022-10-21T01:08:37.058Z,86.27
2022-10-21T01:11:08.163Z,94.03
2022-10-21T01:13:49.609Z,92.23
2022-10-21T01:16:22.268Z,90.97
2022-10-21T01:19:00.182Z,91.37
2022-10-21T01:21:35.924Z,94.03
2022-10-21T01:24:36.301Z,95.13
2022-10-21T01:27:17.945Z,93.77
2022-10-21T01:30:09.208Z,95.23
2022-10-21T01:33:15.188Z,96.50
2022-10-21T01:35:50.626Z,95.17
2022-10-21T01:38:24.498Z,90.83
2022-10-21T01:40:58.472Z,93.03
2022-10-21T01:43:34.834Z,92.63
2022-10-21T01:46:07.194Z,95.13
2022-10-21T01:48:41.095Z,93.23
2022-10-21T01:51:11.191Z,93.80
2022-10-21T01:53:47.906Z,94.30
2022-10-21T01:56:18.324Z,96.53
2022-10-21T01:58:48.465Z,94.37
2022-10-21T02:01:18.847Z,96.10
2022-10-21T02:03:52.591Z,92.73
2022-10-21T02:06:20.515Z,85.40
2022-10-21T02:08:49.229Z,88.23
2022-10-21T02:11:19.012Z,89.10
2022-10-21T02:14:03.799Z,93.77
2022-10-21T02:16:37.761Z,93.27
2022-10-21T02:19:12.108Z,92.23
2022-10-21T02:21:40.776Z,94.37
2022-10-21T02:24:16.948Z,94.27
2022-10-21T02:26:45.116Z,96.03
2022-10-21T02:29:14.678Z,96.23
2022-10-21T02:32:01.582Z,94.87
2022-10-21T02:34:43.058Z,92.50
2022-10-21T02:37:28.147Z,92.17
2022-10-21T02:40:01.246Z,94.87
2022-10-21T02:42:33.231Z,93.10
2022-10-21T02:45:02.382Z,94.30
2022-10-21T02:47:30.650Z,94.37
2022-10-21T02:50:00.127Z,90.70
2022-10-21T02:52:28.130Z,90.73
2022-10-21T02:54:56.248Z,90.90
2022-10-21T02:57:24.304Z,90.13
2022-10-21T02:59:52.347Z,89.40
2022-10-21T03:02:20.473Z,88.20
2022-10-21T03:04:48.494Z,88.80
2022-10-21T03:07:17.947Z,85.77
2022-10-21T03:09:45.969Z,86.70
2022-10-21T03:12:14.054Z,88.20
2022-10-21T03:14:42.115Z,86.50
2022-10-21T03:17:10.240Z,88.13
2022-10-21T03:19:38.292Z,89.23
2022-10-21T03:22:06.391Z,88.47
2022-10-21T03:24:35.805Z,89.67
2022-10-21T03:27:04.075Z,91.37
2022-10-21T03:29:32.256Z,91.37
2022-10-21T03:32:00.362Z,92.00
2022-10-21T03:34:28.499Z,92.80
2022-10-21T03:36:56.574Z,93.33
2022-10-21T03:39:24.670Z,92.00
2022-10-21T03:41:54.191Z,91.40
2022-10-21T03:44:22.262Z,89.90
2022-10-21T03:46:50.377Z,91.30
2022-10-21T03:49:21.369Z,93.87
2022-10-21T03:51:50.017Z,90.90
2022-10-21T03:54:18.484Z,94.40
2022-10-21T03:56:47.240Z,91.53
2022-10-21T03:59:16.971Z,92.77
2022-10-21T04:01:45.150Z,91.43
2022-10-21T04:04:13.227Z,89.50
2022-10-21T04:06:41.215Z,88.60
2022-10-21T04:09:09.364Z,88.63
2022-10-21T04:11:37.518Z,88.40
2022-10-21T04:14:05.629Z,86.70
2022-10-21T04:16:35.167Z,94.60
2022-10-21T04:19:03.387Z,89.23
2022-10-21T04:21:31.475Z,88.87
2022-10-21T04:23:59.533Z,91.37
2022-10-21T04:26:27.596Z,92.20
2022-10-21T04:28:55.837Z,92.50
2022-10-21T04:31:26.521Z,91.47
2022-10-21T04:33:57.914Z,91.17
2022-10-21T04:36:26.047Z,90.63
2022-10-21T04:38:55.080Z,90.07
2022-10-21T04:41:23.282Z,91.70
2022-10-21T04:43:51.361Z,87.97
2022-10-21T04:46:20.870Z,88.60
2022-10-21T04:48:49.068Z,87.93
2022-10-21T04:51:18.565Z,93.63
2022-10-21T04:53:46.882Z,90.67
2022-10-21T04:56:14.930Z,92.77
2022-10-21T04:58:42.997Z,93.47
2022-10-21T05:01:11.126Z,85.57
2022-10-21T05:03:39.213Z,85.33
2022-10-21T05:06:07.406Z,85.80
2022-10-21T05:08:37.000Z,88.03
2022-10-21T05:11:05.219Z,87.97
2022-10-21T05:13:33.599Z,87.07
2022-10-21T05:16:02.794Z,83.47
2022-10-21T05:18:31.397Z,86.70
2022-10-21T05:20:59.941Z,84.60
2022-10-21T05:23:28.425Z,83.93
2022-10-21T05:25:58.073Z,82.67
2022-10-21T05:28:26.605Z,91.40
2022-10-21T05:30:54.696Z,87.40
2022-10-21T05:33:22.763Z,85.00
2022-10-21T05:35:58.228Z,81.50
2022-10-21T05:38:26.235Z,81.50
2022-10-21T05:40:54.327Z,82.10
2022-10-21T05:43:23.837Z,77.77
2022-10-21T05:45:51.967Z,78.43
2022-10-21T05:48:20.207Z,80.03
2022-10-21T05:50:48.871Z,81.57
2022-10-21T05:53:17.470Z,82.17
2022-10-21T05:55:45.666Z,80.00
2022-10-21T05:58:13.687Z,78.70
2022-10-21T06:00:43.477Z,81.80
2022-10-21T06:03:11.632Z,82.13
2022-10-21T06:05:39.741Z,86.13
2022-10-21T06:08:07.951Z,90.37
2022-10-21T06:10:35.985Z,88.90
2022-10-21T06:13:04.078Z,87.00
2022-10-21T06:15:32.143Z,89.37
2022-10-21T06:18:01.555Z,91.17
2022-10-21T06:20:29.636Z,85.70
2022-10-21T06:22:59.676Z,83.77
2022-10-21T06:25:27.799Z,87.43
2022-10-21T06:27:55.901Z,87.53
2022-10-21T06:30:24.207Z,85.70
2022-10-21T06:32:52.237Z,84.17
2022-10-21T06:35:21.511Z,87.63
2022-10-21T06:37:49.426Z,86.13
2022-10-21T06:40:17.544Z,85.73
2022-10-21T06:42:45.473Z,88.30
2022-10-21T06:45:13.635Z,92.93
2022-10-21T06:47:41.941Z,90.50
2022-10-21T06:50:10.494Z,91.53
2022-10-21T06:52:39.950Z,90.47
2022-10-21T06:55:08.997Z,89.67
2022-10-21T06:57:37.442Z,92.67
2022-10-21T07:00:06.641Z,92.70
2022-10-21T07:02:34.591Z,91.90
2022-10-21T07:05:02.663Z,91.97
2022-10-21T07:07:30.575Z,94.50
2022-10-21T07:09:59.942Z,90.60
2022-10-21T07:12:28.719Z,89.57
2022-10-21T07:14:56.608Z,88.43
2022-10-21T07:17:24.773Z,90.93
2022-10-21T07:19:52.683Z,90.63
2022-10-21T07:22:20.616Z,86.33
2022-10-21T07:24:48.547Z,86.40
2022-10-21T07:27:17.811Z,87.13
2022-10-21T07:29:45.797Z,87.70
2022-10-21T07:32:13.708Z,90.33
2022-10-21T07:34:41.784Z,90.87
2022-10-21T07:37:09.836Z,90.73
2022-10-21T07:39:37.746Z,91.63
2022-10-21T07:42:05.696Z,91.77
2022-10-21T07:44:36.047Z,92.73
2022-10-21T07:47:04.012Z,97.17
2022-10-21T07:49:31.891Z,95.80
2022-10-21T07:52:00.026Z,94.50
2022-10-21T07:54:27.932Z,98.23
2022-10-21T07:56:55.832Z,98.53
2022-10-21T07:59:24.374Z,97.10
2022-10-21T08:01:54.098Z,98.63
2022-10-21T08:04:24.860Z,99.73
2022-10-21T08:06:52.895Z,100.33
2022-10-21T08:09:20.834Z,100.10
2022-10-21T08:11:48.864Z,100.90
2022-10-21T08:14:17.086Z,99.03
2022-10-21T08:16:45.067Z,94.47
2022-10-21T08:19:19.902Z,94.90
2022-10-21T08:21:48.054Z,97.37
2022-10-21T08:24:15.987Z,100.43
2022-10-21T08:26:43.925Z,100.73
2022-10-21T08:29:11.865Z,97.77
2022-10-21T08:31:40.859Z,99.07
2022-10-21T08:34:10.444Z,96.00
2022-10-21T08:36:40.171Z,94.30
2022-10-21T08:39:08.569Z,94.13
2022-10-21T08:41:57.554Z,94.70
2022-10-21T08:44:34.699Z,96.77
2022-10-21T08:49:51.795Z,94.03
2022-10-21T08:52:24.619Z,99.97
2022-10-21T08:54:57.443Z,100.97
2022-10-21T08:57:25.528Z,100.30
2022-10-21T08:59:53.871Z,98.50
2022-10-21T09:02:36.315Z,102.33
2022-10-21T09:05:22.741Z,103.40
2022-10-21T09:08:04.369Z,105.13
2022-10-21T09:10:46.595Z,105.67
2022-10-21T09:13:21.329Z,100.10
2022-10-21T09:16:00.156Z,99.10
2022-10-21T09:18:39.670Z,102.77
2022-10-21T09:21:15.939Z,105.20
2022-10-21T09:24:06.735Z,109.60
2022-10-21T09:26:38.885Z,106.83
2022-10-21T09:29:31.789Z,102.73
2022-10-21T09:32:11.496Z,103.50
2022-10-21T09:34:52.091Z,105.30
2022-10-21T09:37:29.428Z,106.20
2022-10-21T09:40:08.460Z,101.70
2022-10-21T09:42:47.482Z,100.17
2022-10-21T09:45:25.002Z,99.43
2022-10-21T09:47:57.938Z,102.50
2022-10-21T09:50:26.782Z,106.67
2022-10-21T09:53:01.794Z,105.30
2022-10-21T09:55:32.618Z,109.90
2022-10-21T09:58:02.722Z,101.93
2022-10-21T10:00:45.849Z,103.80
2022-10-21T10:03:14.514Z,102.33
2022-10-21T10:05:47.114Z,101.10
2022-10-21T10:08:27.634Z,100.47
2022-10-21T10:11:03.467Z,99.20
2022-10-21T10:13:32.089Z,98.47
2022-10-21T10:16:15.769Z,97.63
2022-10-21T10:18:44.596Z,98.23
2022-10-21T10:21:13.865Z,100.70
2022-10-21T10:23:47.130Z,101.77
2022-10-21T10:26:23.752Z,109.87
2022-10-21T10:28:57.696Z,110.63
2022-10-21T10:31:29.449Z,103.57
2022-10-21T10:34:01.037Z,103.30
2022-10-21T10:36:32.707Z,102.00
2022-10-21T10:39:02.780Z,102.90
2022-10-21T10:41:37.335Z,103.43
2022-10-21T10:44:11.998Z,102.07
2022-10-21T10:46:40.788Z,99.93
2022-10-21T10:49:22.522Z,102.63
2022-10-21T10:52:06.528Z,98.93
2022-10-21T10:54:34.975Z,98.00
2022-10-21T10:57:09.747Z,95.37
2022-10-21T10:59:43.097Z,91.93
2022-10-21T11:02:26.881Z,89.13
2022-10-21T11:05:16.239Z,91.73
2022-10-21T11:07:48.650Z,88.47
2022-10-21T11:10:30.957Z,90.33
2022-10-21T11:13:01.787Z,88.00
2022-10-21T11:15:43.229Z,75.37
2022-10-21T11:18:25.829Z,74.77
2022-10-21T11:21:06.296Z,75.93
2022-10-21T11:23:52.274Z,74.17
2022-10-21T11:26:33.712Z,76.17
2022-10-21T11:29:17.472Z,73.00
2022-10-21T11:32:10.687Z,68.20
2022-10-21T11:34:50.740Z,59.50
2022-10-21T11:37:28.767Z,60.07
2022-10-21T11:40:04.367Z,62.33
2022-10-21T11:42:39.946Z,56.50
2022-10-21T11:45:26.360Z,51.10
2022-10-21T11:48:01.883Z,40.10
2022-10-21T11:50:36.589Z,32.40
2022-10-21T11:53:17.769Z,29.43
2022-10-21T11:55:54.560Z,24.33
2022-10-21T11:58:37.314Z,22.30
2022-10-21T12:01:23.975Z,21.40
2022-10-21T12:04:17.393Z,20.17
2022-10-21T12:06:53.621Z,20.00
2022-10-21T12:09:27.629Z,18.93
2022-10-21T12:11:59.868Z,19.53
2022-10-21T12:14:31.843Z,18.70
2022-10-21T12:17:06.415Z,18.73
2022-10-21T12:19:35.555Z,19.40
2022-10-21T12:22:04.601Z,19.30
2022-10-21T12:24:45.024Z,19.80
2022-10-21T12:27:22.910Z,19.87
2022-10-21T12:30:05.212Z,20.40
2022-10-21T12:32:42.669Z,19.33
2022-10-21T12:35:15.008Z,18.80
2022-10-21T12:38:01.926Z,19.50
2022-10-21T12:40:41.036Z,18.90
2022-10-21T12:43:22.399Z,19.60
2022-10-21T12:46:04.496Z,19.90
2022-10-21T12:48:38.137Z,19.27
2022-10-21T12:51:09.103Z,19.40
2022-10-21T12:53:41.272Z,19.43
2022-10-21T12:56:11.536Z,20.00
2022-10-21T12:58:42.615Z,19.20
2022-10-21T13:01:35.397Z,19.73
2022-10-21T13:04:05.373Z,19.57
2022-10-21T13:06:52.917Z,19.37
2022-10-21T13:09:39.290Z,19.60
2022-10-21T13:12:30.425Z,20.00
2022-10-21T13:14:59.633Z,19.80
2022-10-21T13:17:47.132Z,19.87
2022-10-21T13:20:48.271Z,20.07
2022-10-21T13:23:37.907Z,20.00
2022-10-21T13:26:14.107Z,20.33
2022-10-21T13:28:42.774Z,20.50
2022-10-21T13:31:11.073Z,20.23
2022-10-21T13:33:39.832Z,20.00
2022-10-21T13:36:14.061Z,19.20
2022-10-21T13:38:50.352Z,19.33
2022-10-21T13:41:26.159Z,19.00
2022-10-21T13:43:57.271Z,18.70
2022-10-21T13:46:28.721Z,19.60
2022-10-21T13:49:00.584Z,19.10
2022-10-21T13:51:32.657Z,18.90
2022-10-21T13:54:04.257Z,18.13
2022-10-21T13:56:34.312Z,19.07
2022-10-21T13:59:02.946Z,19.10
2022-10-21T14:01:44.726Z,18.50
2022-10-21T14:04:14.841Z,19.13
2022-10-21T14:06:48.349Z,18.30
2022-10-21T14:09:21.754Z,19.00
2022-10-21T14:11:53.577Z,18.93
2022-10-21T14:14:25.572Z,19.03
2022-10-21T14:16:56.727Z,19.77
2022-10-21T14:19:29.090Z,20.03
2022-10-21T14:22:00.930Z,20.27
2022-10-21T14:24:34.970Z,20.40
2022-10-21T14:27:04.295Z,20.60
2022-10-21T14:29:36.021Z,20.50
2022-10-21T14:32:05.576Z,20.90
2022-10-21T14:34:36.712Z,22.20
2022-10-21T14:37:19.329Z,21.40
2022-10-21T14:39:47.967Z,20.87
2022-10-21T14:42:19.332Z,21.10
2022-10-21T14:44:49.661Z,20.67
2022-10-21T14:47:19.773Z,20.13
2022-10-21T14:49:50.048Z,20.90
2022-10-21T14:52:22.808Z,20.53
2022-10-21T14:54:55.788Z,20.87
2022-10-21T14:57:35.460Z,20.70
2022-10-21T15:00:06.118Z,21.80
2022-10-21T15:02:37.231Z,21.97
2022-10-21T15:05:30.953Z,22.23
2022-10-21T15:08:32.145Z,22.60
2022-10-21T15:11:23.319Z,23.30
2022-10-21T15:14:07.279Z,22.90
2022-10-21T15:19:10.103Z,23.57
2022-10-21T15:21:40.974Z,33.90
2022-10-21T15:24:21.102Z,24.13
2022-10-21T15:26:51.707Z,23.70
2022-10-21T15:29:34.835Z,24.77
2022-10-21T15:32:03.620Z,64.70
2022-10-21T15:34:31.956Z,25.07
2022-10-21T15:37:00.101Z,25.10
2022-10-21T15:39:30.080Z,24.97
2022-10-21T15:41:58.987Z,24.27
2022-10-21T15:44:29.260Z,24.17
2022-10-21T15:47:00.723Z,25.00
2022-10-21T15:49:32.855Z,24.33
2022-10-21T15:52:01.024Z,24.03
2022-10-21T15:54:30.447Z,24.00
2022-10-21T15:57:00.216Z,24.00
2022-10-21T15:59:29.811Z,23.70
2022-10-21T16:01:58.856Z,24.60
2022-10-21T16:04:27.652Z,24.37
2022-10-21T16:06:56.237Z,24.70
2022-10-21T16:09:27.003Z,26.40
2022-10-21T16:12:00.340Z,26.30
2022-10-21T16:14:30.999Z,26.40
2022-10-21T16:17:00.461Z,25.80
2022-10-21T16:19:29.035Z,28.10
2022-10-21T16:21:57.118Z,27.30
2022-10-21T16:24:25.265Z,26.90
2022-10-21T16:26:53.380Z,28.27
2022-10-21T16:29:24.694Z,29.40
2022-10-21T16:31:53.291Z,28.90
2022-10-21T16:34:21.572Z,29.00
2022-10-21T16:36:49.693Z,30.00
2022-10-21T16:39:21.958Z,30.53
2022-10-21T16:41:50.298Z,32.03
2022-10-21T16:44:18.620Z,33.00
2022-10-21T16:46:52.065Z,32.67
2022-10-21T16:49:23.421Z,35.20
2022-10-21T16:51:53.095Z,35.13
2022-10-21T16:54:22.622Z,37.57
2022-10-21T16:56:53.357Z,38.17
2022-10-21T16:59:23.449Z,38.43
2022-10-21T17:01:52.973Z,40.60
2022-10-21T17:04:21.090Z,41.77
2022-10-21T17:06:49.026Z,44.70
2022-10-21T17:09:17.281Z,44.60
2022-10-21T17:11:45.438Z,47.97
2022-10-21T17:14:17.523Z,48.40
2022-10-21T17:16:46.318Z,50.77
2022-10-21T17:19:15.918Z,51.80
2022-10-21T17:21:44.383Z,52.97
2022-10-21T17:24:15.421Z,53.87
2022-10-21T17:26:43.500Z,52.37
2022-10-21T17:29:12.459Z,53.17
2022-10-21T17:31:42.660Z,51.60
2022-10-21T17:34:29.080Z,55.00
2022-10-21T17:36:57.488Z,52.97
2022-10-21T17:39:25.899Z,54.63
2022-10-21T17:41:54.479Z,56.37
2022-10-21T17:44:22.943Z,57.10
2022-10-21T17:46:54.636Z,59.50
2022-10-21T17:49:23.749Z,58.10
2022-10-21T17:51:53.755Z,62.83
2022-10-21T17:54:25.982Z,63.60
2022-10-21T17:56:57.777Z,63.03
2022-10-21T17:59:26.838Z,64.67
2022-10-21T18:01:55.255Z,61.90
2022-10-21T18:04:23.716Z,61.87
2022-10-21T18:06:53.294Z,61.43
2022-10-21T18:09:21.813Z,61.10
2022-10-21T18:11:50.129Z,62.33
2022-10-21T18:14:18.431Z,62.80
2022-10-21T18:16:47.106Z,62.30
2022-10-21T18:19:15.601Z,63.40
2022-10-21T18:21:43.886Z,61.97
2022-10-21T18:24:13.658Z,63.07
2022-10-21T18:26:42.020Z,61.60
2022-10-21T18:29:10.567Z,61.30
2022-10-21T18:31:40.146Z,59.23
2022-10-21T18:34:09.342Z,60.80
2022-10-21T18:36:38.102Z,61.97
2022-10-21T18:39:07.696Z,59.87
2022-10-21T18:41:38.676Z,60.33
2022-10-21T18:44:09.226Z,60.60
2022-10-21T18:46:39.202Z,60.30
2022-10-21T18:49:15.137Z,58.03
2022-10-21T18:51:43.509Z,60.23
2022-10-21T18:54:11.846Z,60.30
2022-10-21T18:56:41.448Z,61.17
2022-10-21T18:59:10.056Z,58.03
2022-10-21T19:01:39.170Z,58.40
2022-10-21T19:04:07.723Z,58.83
2022-10-21T19:06:38.671Z,58.20
2022-10-21T19:09:10.031Z,59.27
2022-10-21T19:11:38.445Z,58.53
2022-10-21T19:14:11.259Z,58.70
2022-10-21T19:16:42.442Z,60.63
2022-10-21T19:19:11.053Z,61.80
2022-10-21T19:21:39.622Z,62.03
2022-10-21T19:24:08.553Z,61.60
2022-10-21T19:26:38.966Z,63.80
2022-10-21T19:29:10.716Z,63.00
2022-10-21T19:31:39.012Z,60.90
2022-10-21T19:34:07.763Z,61.67
2022-10-21T19:36:36.236Z,62.50
2022-10-21T19:39:04.491Z,64.10
2022-10-21T19:41:32.702Z,63.47
2022-10-21T19:44:01.404Z,65.57
2022-10-21T19:46:33.049Z,64.70
2022-10-21T19:49:02.762Z,63.83
2022-10-21T19:51:31.055Z,64.97
2022-10-21T19:53:59.410Z,64.83
2022-10-21T19:56:31.972Z,67.77
2022-10-21T19:59:02.730Z,67.00
2022-10-21T20:01:34.248Z,66.43
2022-10-21T20:04:04.419Z,65.50
2022-10-21T20:06:34.156Z,66.60
2022-10-21T20:09:04.682Z,67.23
2022-10-21T20:11:33.369Z,66.27
2022-10-21T20:14:01.875Z,65.90
2022-10-21T20:16:33.331Z,67.00
2022-10-21T20:19:02.665Z,67.53
2022-10-21T20:21:32.890Z,66.97
2022-10-21T20:24:01.783Z,69.30
2022-10-21T20:26:30.497Z,69.77
2022-10-21T20:29:00.693Z,73.50
2022-10-21T20:31:29.972Z,71.80
2022-10-21T20:33:59.660Z,75.57
2022-10-21T20:36:29.575Z,72.77
2022-10-21T20:38:59.789Z,71.03
2022-10-21T20:41:35.935Z,71.23
2022-10-21T20:44:06.359Z,74.30
2022-10-21T20:46:36.344Z,72.20
2022-10-21T20:49:08.118Z,74.97
2022-10-21T20:51:37.802Z,72.83
2022-10-21T20:54:08.439Z,73.93
2022-10-21T20:56:39.308Z,75.40
2022-10-21T20:59:09.146Z,72.93
2022-10-21T21:01:41.791Z,75.47
2022-10-21T21:04:13.381Z,76.70
2022-10-21T21:06:43.888Z,77.80
2022-10-21T21:09:33.614Z,75.07
2022-10-21T21:12:02.791Z,74.13
2022-10-21T21:14:31.161Z,74.87
2022-10-21T21:16:59.234Z,72.20
2022-10-21T21:19:28.792Z,73.60
2022-10-21T21:21:56.892Z,73.47
2022-10-21T21:24:24.993Z,75.30
2022-10-21T21:26:53.084Z,74.53
2022-10-21T21:29:21.210Z,73.00
2022-10-21T21:31:49.299Z,72.40
2022-10-21T21:34:17.607Z,75.57
2022-10-21T21:36:47.133Z,75.93
2022-10-21T21:41:43.405Z,71.37
2022-10-21T21:44:11.486Z,71.73
2022-10-21T21:46:39.543Z,70.23
2022-10-21T21:49:07.662Z,71.60
2022-10-21T21:51:37.013Z,71.10
2022-10-21T21:54:07.718Z,72.23
2022-10-21T21:56:36.054Z,73.80
2022-10-21T21:59:04.123Z,73.93
2022-10-21T22:01:32.219Z,75.60
2022-10-21T22:04:01.203Z,75.87
2022-10-21T22:06:32.405Z,75.80
2022-10-21T22:09:01.996Z,73.27
2022-10-21T22:11:33.458Z,71.23
2022-10-21T22:14:01.636Z,71.53
2022-10-21T22:16:30.993Z,73.60
2022-10-21T22:19:01.112Z,72.50
2022-10-21T22:21:30.851Z,70.07
2022-10-21T22:23:59.311Z,67.40
2022-10-21T22:26:27.663Z,72.63
2022-10-21T22:28:57.152Z,72.33
2022-10-21T22:31:29.290Z,74.77
2022-10-21T22:33:59.940Z,72.33
2022-10-21T22:36:28.121Z,72.10
2022-10-21T22:38:56.215Z,72.60
2022-10-21T22:41:24.261Z,68.77
2022-10-21T22:43:52.401Z,72.23
2022-10-21T22:46:29.747Z,72.03
2022-10-21T22:49:01.371Z,73.97
2022-10-21T22:51:29.444Z,74.03
2022-10-21T22:53:57.521Z,73.97
2022-10-21T22:56:26.145Z,73.93
2022-10-21T22:58:54.215Z,73.10
2022-10-21T23:01:26.665Z,73.57
2022-10-21T23:03:54.719Z,72.90
2022-10-21T23:06:22.723Z,75.13
2022-10-21T23:08:50.850Z,73.93
2022-10-21T23:11:18.953Z,73.07
2022-10-21T23:13:56.400Z,76.50
2022-10-21T23:16:32.566Z,80.37
2022-10-21T23:19:00.805Z,83.73
2022-10-21T23:21:29.331Z,81.20
2022-10-21T23:23:57.539Z,82.13
2022-10-21T23:26:25.833Z,81.87
2022-10-21T23:28:53.935Z,81.73
2022-10-21T23:31:21.956Z,82.50
2022-10-21T23:33:51.434Z,80.47
2022-10-21T23:36:19.834Z,80.40
2022-10-21T23:38:47.925Z,84.17
2022-10-21T23:41:15.983Z,79.60
2022-10-21T23:43:44.113Z,82.33
2022-10-21T23:46:12.141Z,80.30
2022-10-21T23:48:40.207Z,82.23
2022-10-21T23:51:09.637Z,82.87
2022-10-21T23:53:37.691Z,85.40
2022-10-21T23:56:06.267Z,88.03
2022-10-21T23:58:34.422Z,87.87
